Sunday, November 23, 2014
07:24 UTC
  |  Log In   |  Register Free
Airport Search:

Yellowstone Regional Airport
(KCOD)

Yellowstone Regional Airport Diagram
No Airport Diagram Available

FAA data valid effective November 13, 2014 - January 08, 2015 (unless otherwise noted).

 
 
 
 
 
 
 
 
 
 
 
 
 
 

Current Aviation Weather for Yellowstone Regional Airport (KCOD)

The most recent METAR observation for KCOD was updated at: 0711
METAR Summary (Translated METAR)
KCOD
230655Z 25014G21KT 10SM CLR 02/M11 A2966 RMK AO1
KPOY
230655Z AUTO 06006KT 10SM CLR 00/M11 A2965 RMK AO2
(23.1 nm NE from KCOD)
KU68
230655Z AUTO 25008KT 10SM CLR M03/M08 A2967 RMK AO2 PWINO
(34.1 nm NE from KCOD)
TAF Summary (Translated TAF)
KCOD
230539Z 2306/2406 28009KT P6SM VCSH BKN060 FM231900 30015G22KT P6SM SCT040 BKN090 FM240100 26010G18KT P6SM BKN090 AMD LTD TO CLD VIS AND WIND
  Airport Weather Conditions for KCOD

 Current Weather at COD
36° F
Fair
West winds at 16.1 mph
COD NOAA Radar

Pressure: 29.66 in
Humidity: 38%
Wind: from the West at 16.1 gusting to 24.2 MPH (14 gusting to 21 KT)
Dew Point: 12.2°F
Visibility: 10.00 mi


Airport Weather Forecast for KCOD

Translated METAR and TAF for KCOD
Translated METAR for KCOD (0719 UTC 23 November 2014)
found at http://aviationweather.gov/adds/metars/
 
METAR text: KCOD 230715Z 26016G23KT 10SM CLR 02/M12 A2968 RMK AO1
Conditions at: KCOD (CODY , WY, US) observed 0715 UTC 23 November 2014
Temperature: 2.0°C (36°F)
Dewpoint: -12.0°C (10°F) [RH = 35%]
Pressure (altimeter): 29.68 inches Hg (1005.2 mb)
Winds: from the W (260 degrees) at 18 MPH (16 knots; 8.3 m/s)
gusting to 26 MPH (23 knots; 12.0 m/s)
Visibility: 10 or more miles (16+ km)
Ceiling: at least 12,000 feet AGL
Clouds: sky clear below 12,000 feet AGL
Weather: no significant weather observed at this time
Translated TAF for KCOD
Forecast for: KCOD (CODY , WY, US)
TAF Text: KCOD 230539Z 2306/2406 28009KT P6SM VCSH BKN060
Forecast period: 0600 to 1900 UTC 23 November 2014
Forecast type: FROM: standard forecast or significant change
Winds: from the W (280 degrees) at 10 MPH (9 knots; 4.7 m/s)
Visibility: 6 or more miles (10+ km)
Ceiling: 6000 feet AGL
Clouds: broken clouds at 6000 feet AGL
Weather: VCSH  (showers in vicinity)
TAF Text: FM231900 30015G22KT P6SM SCT040 BKN090
Forecast period: 1900 UTC 23 November 2014 to 0100 UTC 24 November 2014
Forecast type: FROM: standard forecast or significant change
Winds: from the WNW (300 degrees) at 17 MPH (15 knots; 7.8 m/s)
gusting to 25 MPH (22 knots; 11.4 m/s)
Visibility: 6 or more miles (10+ km)
Ceiling: 9000 feet AGL
Clouds: scattered clouds at 4000 feet AGL
broken clouds at 9000 feet AGL
Weather: no significant weather forecast for this period
TAF Text: FM240100 26010G18KT P6SM BKN090 AMD LTD TO CLD VIS AND WIND
Forecast period: 0100 to 0600 UTC 24 November 2014
Forecast type: FROM: standard forecast or significant change
Winds: from the W (260 degrees) at 12 MPH (10 knots; 5.2 m/s)
gusting to 21 MPH (18 knots; 9.4 m/s)
Visibility: 6 or more miles (10+ km)
Ceiling: 9000 feet AGL
Clouds: broken clouds at 9000 feet AGL
Weather: no significant weather forecast for this period

Find All Airport Services Find A Hotel Find A Rental Car Find A Golf Course Find A Restaurant $100 Hamburger



FBO's on the Field
FBO Company Facility Photos Services Transportation Aviation Fuel Prices: Prices include tax
Catering Weather Repair Courtesy Rental Type 100LL JetA JetA+ MOGAS 8087
 
Choice Aviation, LLC

This FBO has not yet been rated
FS:Avfuel
Last Updated: Nov-17
Login to update fuel prices
SS:
Contact Choice Aviation, LLCMore FBO Information
 
Add another FBO Facility Photos Catering Weather Repair Courtesy Rental Type 100LL JetA JetA+ MOGAS 8087
Services Transportation Aviation Fuel Prices: Prices include tax


model-print
model-print
model-print
model-print